sensor_id;sensor_type;location;lat;lon;timestamp;pressure;altitude;pressure_sealevel;temperature;humidity
37298;BME280;30517;51.932;4.278;2023-06-26T00:00:43;101295.81;;;29.04;43.00
37298;BME280;30517;51.932;4.278;2023-06-26T00:03:24;101307.84;;;29.00;43.16
37298;BME280;30517;51.932;4.278;2023-06-26T00:06:05;101315.47;;;28.95;43.29
37298;BME280;30517;51.932;4.278;2023-06-26T00:08:46;101265.53;;;28.59;43.42
37298;BME280;30517;51.932;4.278;2023-06-26T00:11:27;101316.88;;;28.88;43.14
37298;BME280;30517;51.932;4.278;2023-06-26T00:14:10;101323.28;;;28.87;43.43
37298;BME280;30517;51.932;4.278;2023-06-26T00:16:51;101307.31;;;28.82;43.04
37298;BME280;30517;51.932;4.278;2023-06-26T00:19:32;101325.47;;;28.82;42.83
37298;BME280;30517;51.932;4.278;2023-06-26T00:22:13;101297.13;;;28.60;43.19
37298;BME280;30517;51.932;4.278;2023-06-26T00:24:54;101323.38;;;28.73;42.88
37298;BME280;30517;51.932;4.278;2023-06-26T00:27:35;101325.25;;;28.72;42.79
37298;BME280;30517;51.932;4.278;2023-06-26T00:30:16;101327.53;;;28.65;43.23
37298;BME280;30517;51.932;4.278;2023-06-26T00:32:57;101311.34;;;28.51;42.83
37298;BME280;30517;51.932;4.278;2023-06-26T00:35:38;101325.22;;;28.59;42.99
37298;BME280;30517;51.932;4.278;2023-06-26T00:38:18;101253.25;;;28.15;43.41
37298;BME280;30517;51.932;4.278;2023-06-26T00:40:59;101280.16;;;28.31;42.76
37298;BME280;30517;51.932;4.278;2023-06-26T00:43:40;101311.00;;;28.43;43.06
37298;BME280;30517;51.932;4.278;2023-06-26T00:46:21;101284.41;;;28.22;42.92
37298;BME280;30517;51.932;4.278;2023-06-26T00:49:04;101301.53;;;28.23;43.44
37298;BME280;30517;51.932;4.278;2023-06-26T00:51:45;101317.81;;;28.36;42.95
37298;BME280;30517;51.932;4.278;2023-06-26T00:54:26;101290.03;;;28.19;43.05
37298;BME280;30517;51.932;4.278;2023-06-26T00:57:07;101334.84;;;28.38;43.13
37298;BME280;30517;51.932;4.278;2023-06-26T00:59:48;101321.94;;;28.29;42.77
37298;BME280;30517;51.932;4.278;2023-06-26T01:02:29;101329.09;;;28.30;43.16
37298;BME280;30517;51.932;4.278;2023-06-26T01:05:14;101346.66;;;28.24;43.10
37298;BME280;30517;51.932;4.278;2023-06-26T01:08:01;101343.72;;;28.14;43.16
37298;BME280;30517;51.932;4.278;2023-06-26T01:10:42;101312.63;;;27.93;43.33
37298;BME280;30517;51.932;4.278;2023-06-26T01:13:24;101303.44;;;27.95;43.18
37298;BME280;30517;51.932;4.278;2023-06-26T01:16:05;101326.69;;;28.12;43.30
37298;BME280;30517;51.932;4.278;2023-06-26T01:18:46;101331.44;;;28.09;43.18
37298;BME280;30517;51.932;4.278;2023-06-26T01:21:28;101302.97;;;27.89;42.81
37298;BME280;30517;51.932;4.278;2023-06-26T01:24:16;101307.09;;;27.94;42.72
37298;BME280;30517;51.932;4.278;2023-06-26T01:27:00;101256.09;;;27.59;43.07
37298;BME280;30517;51.932;4.278;2023-06-26T01:29:44;101326.84;;;27.96;43.04
37298;BME280;30517;51.932;4.278;2023-06-26T01:32:26;101298.44;;;27.75;43.27
37298;BME280;30517;51.932;4.278;2023-06-26T01:35:07;101348.09;;;27.90;43.09
37298;BME280;30517;51.932;4.278;2023-06-26T01:37:49;101329.13;;;27.75;43.54
37298;BME280;30517;51.932;4.278;2023-06-26T01:40:29;101351.50;;;27.79;43.22
37298;BME280;30517;51.932;4.278;2023-06-26T01:43:18;101352.56;;;27.76;43.25
37298;BME280;30517;51.932;4.278;2023-06-26T01:46:23;101338.25;;;27.74;43.08
37298;BME280;30517;51.932;4.278;2023-06-26T01:49:09;101334.97;;;27.69;43.13
37298;BME280;30517;51.932;4.278;2023-06-26T01:52:10;101336.69;;;27.70;43.08
37298;BME280;30517;51.932;4.278;2023-06-26T01:55:17;101354.03;;;27.68;43.10
37298;BME280;30517;51.932;4.278;2023-06-26T01:58:00;101349.66;;;27.65;43.39
37298;BME280;30517;51.932;4.278;2023-06-26T02:00:41;101291.53;;;27.29;43.36
37298;BME280;30517;51.932;4.278;2023-06-26T02:03:22;101336.94;;;27.53;43.40
37298;BME280;30517;51.932;4.278;2023-06-26T02:06:04;101313.97;;;27.31;43.08
37298;BME280;30517;51.932;4.278;2023-06-26T02:08:45;101325.34;;;27.51;43.09
37298;BME280;30517;51.932;4.278;2023-06-26T02:11:26;101337.38;;;27.47;43.38
37298;BME280;30517;51.932;4.278;2023-06-26T02:14:07;101342.09;;;27.43;43.37
37298;BME280;30517;51.932;4.278;2023-06-26T02:16:49;101343.69;;;27.33;43.23
37298;BME280;30517;51.932;4.278;2023-06-26T02:19:30;101308.84;;;27.12;43.56
37298;BME280;30517;51.932;4.278;2023-06-26T02:22:11;101350.81;;;27.34;42.63
37298;BME280;30517;51.932;4.278;2023-06-26T02:24:52;101259.03;;;26.74;43.43
37298;BME280;30517;51.932;4.278;2023-06-26T02:27:33;101358.28;;;27.30;43.34
37298;BME280;30517;51.932;4.278;2023-06-26T02:30:14;101358.56;;;27.26;43.20
37298;BME280;30517;51.932;4.278;2023-06-26T02:32:54;101360.41;;;27.25;42.93
37298;BME280;30517;51.932;4.278;2023-06-26T02:35:35;101333.81;;;27.03;43.17
37298;BME280;30517;51.932;4.278;2023-06-26T02:38:16;101369.03;;;27.18;43.38
37298;BME280;30517;51.932;4.278;2023-06-26T02:40:57;101359.91;;;27.04;43.30
37298;BME280;30517;51.932;4.278;2023-06-26T02:43:38;101339.41;;;26.86;43.69
37298;BME280;30517;51.932;4.278;2023-06-26T02:46:18;101341.25;;;26.85;43.40
37298;BME280;30517;51.932;4.278;2023-06-26T02:48:59;101379.72;;;27.05;43.39
37298;BME280;30517;51.932;4.278;2023-06-26T02:51:40;101377.13;;;27.03;43.38
37298;BME280;30517;51.932;4.278;2023-06-26T02:54:21;101386.47;;;26.98;43.40
37298;BME280;30517;51.932;4.278;2023-06-26T02:57:02;101388.44;;;26.96;43.29
37298;BME280;30517;51.932;4.278;2023-06-26T02:59:43;101366.47;;;26.86;42.88
37298;BME280;30517;51.932;4.278;2023-06-26T03:02:23;101358.34;;;26.72;43.41
37298;BME280;30517;51.932;4.278;2023-06-26T03:05:05;101361.16;;;26.70;42.91
37298;BME280;30517;51.932;4.278;2023-06-26T03:07:46;101398.19;;;26.84;43.33
37298;BME280;30517;51.932;4.278;2023-06-26T03:10:26;101390.16;;;26.82;43.25
37298;BME280;30517;51.932;4.278;2023-06-26T03:13:07;101390.25;;;26.81;43.41
37298;BME280;30517;51.932;4.278;2023-06-26T03:15:48;101381.94;;;26.69;43.55
37298;BME280;30517;51.932;4.278;2023-06-26T03:18:29;101396.44;;;26.68;42.61
37298;BME280;30517;51.932;4.278;2023-06-26T03:21:09;101389.72;;;26.60;43.42
37298;BME280;30517;51.932;4.278;2023-06-26T03:23:50;101354.28;;;26.34;43.52
37298;BME280;30517;51.932;4.278;2023-06-26T03:26:31;101381.56;;;26.45;43.24
37298;BME280;30517;51.932;4.278;2023-06-26T03:29:12;101385.84;;;26.49;42.96
37298;BME280;30517;51.932;4.278;2023-06-26T03:31:53;101387.63;;;26.49;43.08
37298;BME280;30517;51.932;4.278;2023-06-26T03:34:34;101400.94;;;26.54;43.14
37298;BME280;30517;51.932;4.278;2023-06-26T03:37:15;101382.53;;;26.44;43.22
37298;BME280;30517;51.932;4.278;2023-06-26T03:39:55;101414.97;;;26.60;43.13
37298;BME280;30517;51.932;4.278;2023-06-26T03:42:37;101388.72;;;26.46;43.00
37298;BME280;30517;51.932;4.278;2023-06-26T03:45:17;101407.66;;;26.46;42.82
37298;BME280;30517;51.932;4.278;2023-06-26T03:47:59;101417.41;;;26.49;43.68
37298;BME280;30517;51.932;4.278;2023-06-26T03:50:40;101424.75;;;26.47;42.97
37298;BME280;30517;51.932;4.278;2023-06-26T03:53:21;101372.59;;;26.15;43.54
37298;BME280;30517;51.932;4.278;2023-06-26T03:56:05;101388.53;;;26.19;43.07
37298;BME280;30517;51.932;4.278;2023-06-26T03:58:45;101435.06;;;26.40;43.69
37298;BME280;30517;51.932;4.278;2023-06-26T04:01:26;101423.13;;;26.29;43.10
37298;BME280;30517;51.932;4.278;2023-06-26T04:04:08;101419.22;;;26.18;43.24
37298;BME280;30517;51.932;4.278;2023-06-26T04:06:49;101413.66;;;26.05;43.51
37298;BME280;30517;51.932;4.278;2023-06-26T04:09:30;101461.97;;;26.27;42.53
37298;BME280;30517;51.932;4.278;2023-06-26T04:12:11;101449.16;;;26.15;43.02
37298;BME280;30517;51.932;4.278;2023-06-26T04:14:52;101468.50;;;26.23;42.87
37298;BME280;30517;51.932;4.278;2023-06-26T04:17:33;101436.44;;;26.01;43.12
37298;BME280;30517;51.932;4.278;2023-06-26T04:20:14;101417.59;;;25.84;43.45
37298;BME280;30517;51.932;4.278;2023-06-26T04:22:55;101411.66;;;25.77;43.33
37298;BME280;30517;51.932;4.278;2023-06-26T04:25:35;101447.28;;;25.19;44.63
37298;BME280;30517;51.932;4.278;2023-06-26T04:28:17;101450.00;;;25.52;43.65
37298;BME280;30517;51.932;4.278;2023-06-26T04:30:59;101474.47;;;25.65;43.98
37298;BME280;30517;51.932;4.278;2023-06-26T04:33:40;101300.41;;;24.57;43.65
37298;BME280;30517;51.932;4.278;2023-06-26T04:36:21;101384.16;;;25.22;43.74
37298;BME280;30517;51.932;4.278;2023-06-26T04:39:02;101493.75;;;25.75;43.66
37298;BME280;30517;51.932;4.278;2023-06-26T04:41:45;101472.38;;;25.54;43.51
37298;BME280;30517;51.932;4.278;2023-06-26T04:44:25;101507.19;;;25.76;43.85
37298;BME280;30517;51.932;4.278;2023-06-26T04:47:07;101511.81;;;25.74;43.57
37298;BME280;30517;51.932;4.278;2023-06-26T04:49:48;101518.31;;;25.70;43.61
37298;BME280;30517;51.932;4.278;2023-06-26T04:52:29;101519.22;;;25.71;43.65
37298;BME280;30517;51.932;4.278;2023-06-26T04:55:10;101487.19;;;25.47;44.06
37298;BME280;30517;51.932;4.278;2023-06-26T04:57:51;101512.97;;;25.53;43.24
37298;BME280;30517;51.932;4.278;2023-06-26T05:00:32;101533.31;;;25.60;43.77
37298;BME280;30517;51.932;4.278;2023-06-26T05:03:16;101534.59;;;25.53;43.54
37298;BME280;30517;51.932;4.278;2023-06-26T05:05:57;101529.66;;;25.61;43.65
37298;BME280;30517;51.932;4.278;2023-06-26T05:08:38;101545.22;;;25.56;43.46
37298;BME280;30517;51.932;4.278;2023-06-26T05:11:18;101522.69;;;25.39;43.39
37298;BME280;30517;51.932;4.278;2023-06-26T05:13:59;101452.22;;;24.76;43.05
37298;BME280;30517;51.932;4.278;2023-06-26T05:16:40;101528.50;;;25.32;42.93
37298;BME280;30517;51.932;4.278;2023-06-26T05:19:21;101529.00;;;25.23;42.94
37298;BME280;30517;51.932;4.278;2023-06-26T05:22:02;101537.09;;;25.23;43.21
37298;BME280;30517;51.932;4.278;2023-06-26T05:24:47;101558.53;;;25.26;42.99
37298;BME280;30517;51.932;4.278;2023-06-26T05:27:28;101569.81;;;25.34;42.81
37298;BME280;30517;51.932;4.278;2023-06-26T05:30:09;101576.16;;;25.33;42.94
37298;BME280;30517;51.932;4.278;2023-06-26T05:32:51;101577.22;;;25.30;43.06
37298;BME280;30517;51.932;4.278;2023-06-26T05:35:32;101555.44;;;25.16;43.03
37298;BME280;30517;51.932;4.278;2023-06-26T05:38:14;101576.88;;;25.19;43.18
37298;BME280;30517;51.932;4.278;2023-06-26T05:40:55;101554.38;;;25.01;43.01
37298;BME280;30517;51.932;4.278;2023-06-26T05:43:36;101607.31;;;25.23;43.06
37298;BME280;30517;51.932;4.278;2023-06-26T05:46:17;101558.50;;;24.91;43.17
37298;BME280;30517;51.932;4.278;2023-06-26T05:48:58;101593.16;;;25.17;43.02
37298;BME280;30517;51.932;4.278;2023-06-26T05:51:39;101584.56;;;25.09;42.84
37298;BME280;30517;51.932;4.278;2023-06-26T05:54:20;101591.41;;;25.16;42.81
37298;BME280;30517;51.932;4.278;2023-06-26T05:57:01;101592.50;;;25.12;42.72
37298;BME280;30517;51.932;4.278;2023-06-26T05:59:43;101598.84;;;25.11;42.63
37298;BME280;30517;51.932;4.278;2023-06-26T06:02:24;101589.47;;;25.01;43.07
37298;BME280;30517;51.932;4.278;2023-06-26T06:05:05;101609.78;;;25.08;42.79
37298;BME280;30517;51.932;4.278;2023-06-26T06:07:47;101606.91;;;24.94;43.07
37298;BME280;30517;51.932;4.278;2023-06-26T06:10:28;101620.91;;;25.02;43.15
37298;BME280;30517;51.932;4.278;2023-06-26T06:13:08;101619.44;;;24.95;43.17
37298;BME280;30517;51.932;4.278;2023-06-26T06:15:49;101625.66;;;24.97;43.12
37298;BME280;30517;51.932;4.278;2023-06-26T06:18:30;101635.34;;;25.01;42.75
37298;BME280;30517;51.932;4.278;2023-06-26T06:21:11;101597.19;;;24.72;43.21
37298;BME280;30517;51.932;4.278;2023-06-26T06:23:52;101630.81;;;25.02;42.87
37298;BME280;30517;51.932;4.278;2023-06-26T06:26:33;101619.91;;;24.86;42.63
37298;BME280;30517;51.932;4.278;2023-06-26T06:29:13;101642.88;;;24.94;42.62
37298;BME280;30517;51.932;4.278;2023-06-26T06:31:54;101660.03;;;24.93;42.87
37298;BME280;30517;51.932;4.278;2023-06-26T06:34:35;101641.50;;;24.86;43.28
37298;BME280;30517;51.932;4.278;2023-06-26T06:37:16;101612.72;;;24.67;42.71
37298;BME280;30517;51.932;4.278;2023-06-26T06:39:56;101535.31;;;24.14;42.99
37298;BME280;30517;51.932;4.278;2023-06-26T06:42:39;101665.84;;;24.84;43.28
37298;BME280;30517;51.932;4.278;2023-06-26T06:45:20;101665.25;;;24.79;43.00
37298;BME280;30517;51.932;4.278;2023-06-26T06:48:01;101651.31;;;24.69;43.25
37298;BME280;30517;51.932;4.278;2023-06-26T06:50:41;101682.13;;;24.83;43.01
37298;BME280;30517;51.932;4.278;2023-06-26T06:53:22;101680.53;;;24.79;42.52
37298;BME280;30517;51.932;4.278;2023-06-26T06:56:03;101674.63;;;24.70;42.97
37298;BME280;30517;51.932;4.278;2023-06-26T06:58:44;101664.84;;;24.68;43.12
37298;BME280;30517;51.932;4.278;2023-06-26T07:01:26;101696.72;;;24.79;43.19
37298;BME280;30517;51.932;4.278;2023-06-26T07:04:07;101695.13;;;24.75;43.01
37298;BME280;30517;51.932;4.278;2023-06-26T07:06:47;101694.25;;;24.74;42.68
37298;BME280;30517;51.932;4.278;2023-06-26T07:09:28;101700.94;;;24.65;42.67
37298;BME280;30517;51.932;4.278;2023-06-26T07:12:09;101679.66;;;24.59;42.63
37298;BME280;30517;51.932;4.278;2023-06-26T07:14:50;101669.84;;;24.58;42.89
37298;BME280;30517;51.932;4.278;2023-06-26T07:17:34;101690.97;;;24.67;42.86
37298;BME280;30517;51.932;4.278;2023-06-26T07:20:15;101706.72;;;24.77;43.08
37298;BME280;30517;51.932;4.278;2023-06-26T07:22:56;101659.00;;;23.81;43.78
37298;BME280;30517;51.932;4.278;2023-06-26T07:25:36;101679.94;;;23.95;43.94
37298;BME280;30517;51.932;4.278;2023-06-26T07:28:17;101650.06;;;24.20;43.72
37298;BME280;30517;51.932;4.278;2023-06-26T07:30:58;101721.44;;;24.69;43.07
37298;BME280;30517;51.932;4.278;2023-06-26T07:33:39;101700.94;;;24.65;43.31
37298;BME280;30517;51.932;4.278;2023-06-26T07:36:20;101722.25;;;24.71;43.57
37298;BME280;30517;51.932;4.278;2023-06-26T07:39:04;101709.03;;;24.65;43.58
37298;BME280;30517;51.932;4.278;2023-06-26T07:41:45;101737.13;;;24.80;43.53
37298;BME280;30517;51.932;4.278;2023-06-26T07:44:25;101693.31;;;24.56;43.74
37298;BME280;30517;51.932;4.278;2023-06-26T07:47:06;101686.22;;;24.54;43.45
37298;BME280;30517;51.932;4.278;2023-06-26T07:49:47;101728.47;;;24.73;44.04
37298;BME280;30517;51.932;4.278;2023-06-26T07:52:28;101751.63;;;24.78;43.98
37298;BME280;30517;51.932;4.278;2023-06-26T07:55:10;101742.31;;;24.85;44.13
37298;BME280;30517;51.932;4.278;2023-06-26T07:57:51;101726.84;;;24.69;44.32
37298;BME280;30517;51.932;4.278;2023-06-26T08:00:32;101722.53;;;24.65;43.92
37298;BME280;30517;51.932;4.278;2023-06-26T08:03:13;101750.81;;;24.76;44.33
37298;BME280;30517;51.932;4.278;2023-06-26T08:05:54;101692.25;;;24.40;44.23
37298;BME280;30517;51.932;4.278;2023-06-26T08:08:34;101723.13;;;24.72;43.99
37298;BME280;30517;51.932;4.278;2023-06-26T08:11:15;101691.22;;;24.42;44.32
37298;BME280;30517;51.932;4.278;2023-06-26T08:13:56;101768.13;;;24.90;44.36
37298;BME280;30517;51.932;4.278;2023-06-26T08:16:40;101761.56;;;24.96;43.81
37298;BME280;30517;51.932;4.278;2023-06-26T08:19:22;101767.75;;;24.98;44.27
37298;BME280;30517;51.932;4.278;2023-06-26T08:22:02;101771.38;;;24.97;44.15
37298;BME280;30517;51.932;4.278;2023-06-26T08:24:43;101741.66;;;24.80;44.46
37298;BME280;30517;51.932;4.278;2023-06-26T08:27:25;101775.03;;;24.96;44.06
37298;BME280;30517;51.932;4.278;2023-06-26T08:30:06;101773.94;;;25.00;44.17
37298;BME280;30517;51.932;4.278;2023-06-26T08:32:47;101756.47;;;24.90;43.94
37298;BME280;30517;51.932;4.278;2023-06-26T08:35:28;101788.38;;;24.99;44.01
37298;BME280;30517;51.932;4.278;2023-06-26T08:38:09;101791.16;;;24.98;44.31
37298;BME280;30517;51.932;4.278;2023-06-26T08:40:50;101798.00;;;25.05;44.11
37298;BME280;30517;51.932;4.278;2023-06-26T08:43:30;101791.09;;;24.99;44.68
37298;BME280;30517;51.932;4.278;2023-06-26T08:46:11;101789.09;;;25.03;43.81
37298;BME280;30517;51.932;4.278;2023-06-26T08:48:56;101800.50;;;25.09;43.84
37298;BME280;30517;51.932;4.278;2023-06-26T08:51:38;101798.72;;;25.08;44.45
37298;BME280;30517;51.932;4.278;2023-06-26T08:54:23;101755.34;;;24.94;43.93
37298;BME280;30517;51.932;4.278;2023-06-26T08:57:08;101794.28;;;25.07;44.07
37298;BME280;30517;51.932;4.278;2023-06-26T08:59:50;101797.53;;;25.15;44.08
37298;BME280;30517;51.932;4.278;2023-06-26T09:02:31;101789.84;;;25.06;44.06
37298;BME280;30517;51.932;4.278;2023-06-26T09:05:12;101695.53;;;24.46;43.91
37298;BME280;30517;51.932;4.278;2023-06-26T09:07:53;101823.56;;;25.16;44.23
37298;BME280;30517;51.932;4.278;2023-06-26T09:10:37;101784.47;;;25.06;44.02
37298;BME280;30517;51.932;4.278;2023-06-26T09:13:18;101822.50;;;25.21;44.22
37298;BME280;30517;51.932;4.278;2023-06-26T09:16:04;101826.94;;;25.22;44.16
37298;BME280;30517;51.932;4.278;2023-06-26T09:18:47;101697.63;;;24.40;44.06
37298;BME280;30517;51.932;4.278;2023-06-26T09:21:28;101835.84;;;25.24;44.11
37298;BME280;30517;51.932;4.278;2023-06-26T09:24:10;101829.72;;;25.20;44.12
37298;BME280;30517;51.932;4.278;2023-06-26T09:26:51;101825.19;;;25.21;43.76
37298;BME280;30517;51.932;4.278;2023-06-26T09:29:32;101841.09;;;25.27;44.08
37298;BME280;30517;51.932;4.278;2023-06-26T09:32:13;101843.88;;;25.25;43.62
37298;BME280;30517;51.932;4.278;2023-06-26T09:34:54;101850.81;;;25.31;43.86
37298;BME280;30517;51.932;4.278;2023-06-26T09:37:40;101828.38;;;25.10;43.78
37298;BME280;30517;51.932;4.278;2023-06-26T09:40:21;101848.25;;;25.28;43.97
37298;BME280;30517;51.932;4.278;2023-06-26T09:43:05;101856.91;;;25.34;43.38
37298;BME280;30517;51.932;4.278;2023-06-26T09:45:46;101840.28;;;25.25;43.34
37298;BME280;30517;51.932;4.278;2023-06-26T09:48:29;101861.38;;;25.35;43.41
37298;BME280;30517;51.932;4.278;2023-06-26T09:51:10;101845.06;;;25.20;43.53
37298;BME280;30517;51.932;4.278;2023-06-26T09:53:51;101879.41;;;25.16;44.19
37298;BME280;30517;51.932;4.278;2023-06-26T09:56:32;101878.13;;;25.04;43.62
37298;BME280;30517;51.932;4.278;2023-06-26T09:59:13;101846.25;;;25.12;43.28
37298;BME280;30517;51.932;4.278;2023-06-26T10:01:58;101866.50;;;25.23;43.48
37298;BME280;30517;51.932;4.278;2023-06-26T10:04:40;101870.56;;;25.31;43.21
37298;BME280;30517;51.932;4.278;2023-06-26T10:07:21;101857.84;;;25.14;43.23
37298;BME280;30517;51.932;4.278;2023-06-26T10:10:03;101878.53;;;25.34;43.31
37298;BME280;30517;51.932;4.278;2023-06-26T10:12:48;101888.53;;;25.32;43.29
37298;BME280;30517;51.932;4.278;2023-06-26T10:15:29;101883.88;;;25.36;42.95
37298;BME280;30517;51.932;4.278;2023-06-26T10:18:13;101888.16;;;25.40;42.69
37298;BME280;30517;51.932;4.278;2023-06-26T10:20:57;101881.44;;;25.30;42.78
37298;BME280;30517;51.932;4.278;2023-06-26T10:23:40;101863.94;;;25.20;43.17
37298;BME280;30517;51.932;4.278;2023-06-26T10:26:24;101886.69;;;25.33;43.17
37298;BME280;30517;51.932;4.278;2023-06-26T10:29:06;101910.72;;;25.39;42.80
37298;BME280;30517;51.932;4.278;2023-06-26T10:31:50;101909.84;;;25.38;42.97
37298;BME280;30517;51.932;4.278;2023-06-26T10:34:32;101903.69;;;25.35;42.76
37298;BME280;30517;51.932;4.278;2023-06-26T10:37:13;101916.03;;;25.41;42.87
37298;BME280;30517;51.932;4.278;2023-06-26T10:39:54;101858.28;;;25.05;42.49
37298;BME280;30517;51.932;4.278;2023-06-26T10:42:36;101908.84;;;25.41;42.29
37298;BME280;30517;51.932;4.278;2023-06-26T10:45:20;101912.31;;;25.43;42.66
37298;BME280;30517;51.932;4.278;2023-06-26T10:48:01;101917.88;;;25.40;42.48
37298;BME280;30517;51.932;4.278;2023-06-26T10:50:47;101925.81;;;25.43;42.58
37298;BME280;30517;51.932;4.278;2023-06-26T10:53:29;101931.16;;;25.45;42.16
37298;BME280;30517;51.932;4.278;2023-06-26T10:56:15;101906.03;;;25.24;42.34
37298;BME280;30517;51.932;4.278;2023-06-26T10:59:11;101937.44;;;25.45;42.15
37298;BME280;30517;51.932;4.278;2023-06-26T11:01:57;101942.03;;;25.43;42.44
37298;BME280;30517;51.932;4.278;2023-06-26T11:04:46;101885.94;;;25.10;42.35
37298;BME280;30517;51.932;4.278;2023-06-26T11:07:27;101934.78;;;25.44;42.25
37298;BME280;30517;51.932;4.278;2023-06-26T11:10:09;101934.88;;;24.19;41.35
37298;BME280;30517;51.932;4.278;2023-06-26T11:12:50;101956.94;;;23.63;42.86
37298;BME280;30517;51.932;4.278;2023-06-26T11:15:31;101968.78;;;23.10;40.73
37298;BME280;30517;51.932;4.278;2023-06-26T11:18:12;101959.78;;;23.11;41.13
37298;BME280;30517;51.932;4.278;2023-06-26T11:21:04;101960.41;;;23.65;41.19
37298;BME280;30517;51.932;4.278;2023-06-26T11:23:45;101964.72;;;24.37;41.00
37298;BME280;30517;51.932;4.278;2023-06-26T11:26:28;101946.25;;;24.49;40.84
37298;BME280;30517;51.932;4.278;2023-06-26T11:29:10;101874.53;;;24.23;40.85
37298;BME280;30517;51.932;4.278;2023-06-26T11:31:59;101977.66;;;24.91;40.77
37298;BME280;30517;51.932;4.278;2023-06-26T11:34:40;101982.72;;;24.99;40.67
37298;BME280;30517;51.932;4.278;2023-06-26T11:37:24;101988.78;;;25.04;40.61
37298;BME280;30517;51.932;4.278;2023-06-26T11:40:21;101971.78;;;25.02;40.36
37298;BME280;30517;51.932;4.278;2023-06-26T11:43:06;101976.84;;;25.10;40.73
37298;BME280;30517;51.932;4.278;2023-06-26T11:45:49;101996.47;;;25.13;40.50
37298;BME280;30517;51.932;4.278;2023-06-26T11:48:30;101967.34;;;25.01;40.69
37298;BME280;30517;51.932;4.278;2023-06-26T11:51:15;101990.84;;;25.20;40.73
37298;BME280;30517;51.932;4.278;2023-06-26T11:53:56;101996.97;;;25.23;40.91
37298;BME280;30517;51.932;4.278;2023-06-26T11:56:36;101958.81;;;25.10;40.46
37298;BME280;30517;51.932;4.278;2023-06-26T11:59:17;101976.53;;;25.17;40.89
37298;BME280;30517;51.932;4.278;2023-06-26T12:01:58;101981.63;;;25.24;40.66
37298;BME280;30517;51.932;4.278;2023-06-26T12:04:41;102001.88;;;25.34;40.46
37298;BME280;30517;51.932;4.278;2023-06-26T12:07:23;101993.16;;;25.27;40.29
37298;BME280;30517;51.932;4.278;2023-06-26T12:10:04;102016.97;;;25.38;40.49
37298;BME280;30517;51.932;4.278;2023-06-26T12:12:46;102020.50;;;25.40;40.56
37298;BME280;30517;51.932;4.278;2023-06-26T12:15:27;102015.91;;;25.42;40.64
37298;BME280;30517;51.932;4.278;2023-06-26T12:18:09;102018.47;;;25.45;40.50
37298;BME280;30517;51.932;4.278;2023-06-26T12:20:50;101997.34;;;25.34;40.65
37298;BME280;30517;51.932;4.278;2023-06-26T12:23:38;102006.06;;;25.41;40.46
37298;BME280;30517;51.932;4.278;2023-06-26T12:26:19;102021.97;;;25.47;40.46
37298;BME280;30517;51.932;4.278;2023-06-26T12:29:07;102012.34;;;25.42;40.55
37298;BME280;30517;51.932;4.278;2023-06-26T12:31:51;102020.81;;;25.53;40.46
37298;BME280;30517;51.932;4.278;2023-06-26T12:34:34;101984.47;;;25.41;40.69
37298;BME280;30517;51.932;4.278;2023-06-26T12:37:15;102020.53;;;25.59;40.35
37298;BME280;30517;51.932;4.278;2023-06-26T12:39:57;101976.47;;;25.38;40.66
37298;BME280;30517;51.932;4.278;2023-06-26T12:42:38;102022.06;;;25.65;40.48
37298;BME280;30517;51.932;4.278;2023-06-26T12:45:19;102032.94;;;25.63;40.31
37298;BME280;30517;51.932;4.278;2023-06-26T12:48:16;102037.25;;;25.67;40.09
37298;BME280;30517;51.932;4.278;2023-06-26T12:50:57;101986.19;;;25.42;40.54
37298;BME280;30517;51.932;4.278;2023-06-26T12:53:38;102026.28;;;25.70;40.63
37298;BME280;30517;51.932;4.278;2023-06-26T12:56:19;102031.78;;;25.69;40.51
37298;BME280;30517;51.932;4.278;2023-06-26T12:59:00;102031.53;;;25.73;40.30
37298;BME280;30517;51.932;4.278;2023-06-26T13:01:41;102024.34;;;25.74;40.17
37298;BME280;30517;51.932;4.278;2023-06-26T13:04:22;101978.63;;;25.50;40.15
37298;BME280;30517;51.932;4.278;2023-06-26T13:07:04;102030.41;;;25.79;40.44
37298;BME280;30517;51.932;4.278;2023-06-26T13:09:45;101967.19;;;25.44;40.32
37298;BME280;30517;51.932;4.278;2023-06-26T13:12:27;101898.69;;;25.07;40.36
37298;BME280;30517;51.932;4.278;2023-06-26T13:15:08;101994.69;;;25.72;40.56
37298;BME280;30517;51.932;4.278;2023-06-26T13:17:49;102020.19;;;25.86;40.37
37298;BME280;30517;51.932;4.278;2023-06-26T13:20:30;102017.34;;;25.89;40.29
37298;BME280;30517;51.932;4.278;2023-06-26T13:23:11;101993.00;;;25.70;40.01
37298;BME280;30517;51.932;4.278;2023-06-26T13:25:53;102009.03;;;25.93;40.10
37298;BME280;30517;51.932;4.278;2023-06-26T13:28:34;101675.91;;;23.84;39.93
37298;BME280;30517;51.932;4.278;2023-06-26T13:31:15;101782.19;;;24.39;40.20
37298;BME280;30517;51.932;4.278;2023-06-26T13:33:57;102005.66;;;25.88;40.29
37298;BME280;30517;51.932;4.278;2023-06-26T13:36:39;102027.59;;;26.01;40.06
37298;BME280;30517;51.932;4.278;2023-06-26T13:39:19;101996.16;;;25.79;39.95
37298;BME280;30517;51.932;4.278;2023-06-26T13:42:00;102019.63;;;25.98;39.86
37298;BME280;30517;51.932;4.278;2023-06-26T13:44:41;102023.78;;;25.86;40.10
37298;BME280;30517;51.932;4.278;2023-06-26T13:47:22;102041.50;;;26.11;39.83
37298;BME280;30517;51.932;4.278;2023-06-26T13:50:04;101976.56;;;25.74;39.85
37298;BME280;30517;51.932;4.278;2023-06-26T13:52:46;102044.81;;;26.17;39.88
37298;BME280;30517;51.932;4.278;2023-06-26T13:55:26;102050.13;;;26.19;39.61
37298;BME280;30517;51.932;4.278;2023-06-26T13:58:08;102031.19;;;26.19;39.67
37298;BME280;30517;51.932;4.278;2023-06-26T14:00:49;102039.09;;;26.23;39.72
37298;BME280;30517;51.932;4.278;2023-06-26T14:03:30;102001.31;;;26.03;40.11
37298;BME280;30517;51.932;4.278;2023-06-26T14:06:10;102021.28;;;26.19;39.72